Terminal Aerodrome Forecast
Issued by NWS

Home | Current Version | Previous Version | Text Only | Print | Product List | Glossary On
Versions: 1 2 3 4 5 6 7 8 9 10 11 12
490
FTUS43 KICT 051737
TAFSLN
TAF
KSLN 051737Z 0518/0618 20007KT P6SM SCT040 BKN070
     FM052200 26008KT P6SM SCT040 BKN070
     FM060300 30007KT P6SM SCT030 BKN060=

USA.gov is the U.S. government's official web portal to all federal, state and local government web resources and services.